createdAt,value
2023-05-07T00:02:17.376Z,95381.31
2023-05-07T00:04:46.969Z,95383.91
2023-05-07T00:07:13.640Z,95381.88
2023-05-07T00:09:40.215Z,95380.59
2023-05-07T00:12:07.458Z,95383.69
2023-05-07T00:14:34.122Z,95375.84
2023-05-07T00:17:00.754Z,95384.34
2023-05-07T00:19:27.390Z,95385.81
2023-05-07T00:21:54.380Z,95377.19
2023-05-07T00:24:21.171Z,95382.66
2023-05-07T00:26:47.863Z,95374.34
2023-05-07T00:29:14.458Z,95378.66
2023-05-07T00:31:41.108Z,95376.63
2023-05-07T00:34:07.792Z,95375.03
2023-05-07T00:36:34.482Z,95369.13
2023-05-07T00:39:01.930Z,95373.31
2023-05-07T00:41:28.845Z,95372.03
2023-05-07T00:43:55.474Z,95365.81
2023-05-07T00:46:22.544Z,95362.63
2023-05-07T00:48:50.790Z,95363.28
2023-05-07T00:51:18.872Z,95372.28
2023-05-07T00:53:46.605Z,95366.22
2023-05-07T00:56:13.552Z,95359.50
2023-05-07T00:58:41.610Z,95360.28
2023-05-07T01:01:08.273Z,95358.22
2023-05-07T01:06:32.805Z,95364.38
2023-05-07T01:09:00.833Z,95365.50
2023-05-07T01:11:27.733Z,95366.63
2023-05-07T01:13:54.942Z,95373.22
2023-05-07T01:16:22.287Z,95363.47
2023-05-07T01:18:49.260Z,95363.47
2023-05-07T01:21:18.619Z,95374.38
2023-05-07T01:23:46.572Z,95370.16
2023-05-07T01:26:13.181Z,95373.22
2023-05-07T01:28:40.415Z,95374.81
2023-05-07T01:31:08.722Z,95379.81
2023-05-07T01:33:36.284Z,95374.09
2023-05-07T01:36:04.821Z,95370.03
2023-05-07T01:38:32.012Z,95361.53
2023-05-07T01:40:59.252Z,95362.69
2023-05-07T01:43:26.454Z,95361.84
2023-05-07T01:45:53.787Z,95360.28
2023-05-07T01:48:21.005Z,95367.97
2023-05-07T01:50:49.002Z,95367.19
2023-05-07T01:53:15.795Z,95359.34
2023-05-07T01:55:42.507Z,95366.75
2023-05-07T01:58:09.637Z,95362.88
2023-05-07T02:00:36.271Z,95361.16
2023-05-07T02:03:03.258Z,95352.97
2023-05-07T02:05:44.621Z,95355.25
2023-05-07T02:08:30.287Z,95356.38
2023-05-07T02:10:57.581Z,95355.13
2023-05-07T02:13:25.588Z,95359.75
2023-05-07T02:15:52.453Z,95355.78
2023-05-07T02:18:19.520Z,95358.84
2023-05-07T02:20:46.293Z,95366.59
2023-05-07T02:23:12.988Z,95368.03
2023-05-07T02:25:39.688Z,95360.19
2023-05-07T02:28:06.349Z,95360.53
2023-05-07T02:30:51.447Z,95363.59
2023-05-07T02:33:18.153Z,95360.09
2023-05-07T02:35:44.956Z,95361.22
2023-05-07T02:38:13.764Z,95353.81
2023-05-07T02:40:41.361Z,95358.03
2023-05-07T02:43:08.303Z,95356.41
2023-05-07T02:45:35.485Z,95360.63
2023-05-07T02:48:03.510Z,95353.13
2023-05-07T02:50:30.294Z,95355.38
2023-05-07T02:52:56.887Z,95350.59
2023-05-07T02:55:23.554Z,95355.59
2023-05-07T02:57:50.272Z,95352.41
2023-05-07T03:00:19.392Z,95364.75
2023-05-07T03:03:05.821Z,95354.19
2023-05-07T03:05:32.484Z,95355.34
2023-05-07T03:07:59.057Z,95355.34
2023-05-07T03:10:25.751Z,95352.94
2023-05-07T03:12:52.395Z,95355.34
2023-05-07T03:15:19.165Z,95355.34
2023-05-07T03:17:45.859Z,95354.53
2023-05-07T03:20:12.815Z,95356.91
2023-05-07T03:22:41.060Z,95359.19
2023-05-07T03:25:08.645Z,95359.19
2023-05-07T03:27:35.614Z,95355.53
2023-05-07T03:30:02.273Z,95359.06
2023-05-07T03:32:29.147Z,95355.84
2023-05-07T03:34:56.187Z,95361.31
2023-05-07T03:37:23.188Z,95355.06
2023-05-07T03:39:50.056Z,95344.16
2023-05-07T03:42:17.507Z,95346.91
2023-05-07T03:44:44.352Z,95343.38
2023-05-07T03:47:11.150Z,95342.56
2023-05-07T03:49:38.461Z,95345.63
2023-05-07T03:52:05.747Z,95346.78
2023-05-07T03:54:33.125Z,95347.88
2023-05-07T03:56:59.824Z,95353.34
2023-05-07T03:59:26.875Z,95351.72
2023-05-07T04:01:53.671Z,95359.13
2023-05-07T04:04:23.491Z,95354.81
2023-05-07T04:06:50.290Z,95347.78
2023-05-07T04:09:16.969Z,95353.22
2023-05-07T04:11:44.607Z,95350.50
2023-05-07T04:14:11.966Z,95361.38
2023-05-07T04:16:39.295Z,95361.38
2023-05-07T04:19:07.410Z,95370.69
2023-05-07T04:21:35.122Z,95369.91
2023-05-07T04:24:01.835Z,95360.59
2023-05-07T04:26:29.521Z,95368.78
2023-05-07T04:28:56.566Z,95369.56
2023-05-07T04:31:23.188Z,95376.63
2023-05-07T04:33:52.939Z,95377.84
2023-05-07T04:36:20.156Z,95377.53
2023-05-07T04:38:56.337Z,95384.59
2023-05-07T04:41:23.053Z,95379.59
2023-05-07T04:43:50.238Z,95383.91
2023-05-07T04:46:18.336Z,95391.16
2023-05-07T04:48:45.472Z,95380.97
2023-05-07T04:51:12.099Z,95382.38
2023-05-07T04:53:38.985Z,95382.16
2023-05-07T04:56:05.740Z,95387.41
2023-05-07T04:58:40.258Z,95385.28
2023-05-07T05:01:07.438Z,95394.03
2023-05-07T05:03:34.497Z,95391.47
2023-05-07T05:06:01.399Z,95387.72
2023-05-07T05:08:32.110Z,95387.50
2023-05-07T05:11:00.084Z,95386.84
2023-05-07T05:13:27.085Z,95395.94
2023-05-07T05:15:54.088Z,95398.47
2023-05-07T05:18:20.836Z,95395.84
2023-05-07T05:20:47.715Z,95395.41
2023-05-07T05:23:14.409Z,95397.31
2023-05-07T05:25:40.987Z,95405.03
2023-05-07T05:28:10.484Z,95404.59
2023-05-07T05:30:37.525Z,95400.72
2023-05-07T05:33:04.355Z,95388.69
2023-05-07T05:35:31.650Z,95396.88
2023-05-07T05:37:59.605Z,95388.91
2023-05-07T05:40:26.312Z,95388.47
2023-05-07T05:42:52.937Z,95399.16
2023-05-07T05:45:20.185Z,95391.91
2023-05-07T05:47:47.088Z,95398.44
2023-05-07T05:50:14.471Z,95396.25
2023-05-07T05:52:41.119Z,95391.84
2023-05-07T05:55:08.427Z,95393.66
2023-05-07T05:57:36.924Z,95394.03
2023-05-07T06:00:04.109Z,95394.38
2023-05-07T06:02:34.112Z,95388.47
2023-05-07T06:05:01.406Z,95383.34
2023-05-07T06:07:28.209Z,95391.53
2023-05-07T06:09:55.491Z,95386.41
2023-05-07T06:12:22.528Z,95388.31
2023-05-07T06:14:49.698Z,95384.28
2023-05-07T06:17:18.301Z,95380.31
2023-05-07T06:19:47.344Z,95389.63
2023-05-07T06:22:15.784Z,95384.94
2023-05-07T06:24:42.571Z,95377.34
2023-05-07T06:27:09.855Z,95375.94
2023-05-07T06:29:36.428Z,95382.50
2023-05-07T06:32:09.332Z,95382.81
2023-05-07T06:34:36.567Z,95385.03
2023-05-07T06:37:03.775Z,95389.63
2023-05-07T06:39:44.274Z,95387.63
2023-05-07T06:42:10.851Z,95387.50
2023-05-07T06:44:41.601Z,95396.41
2023-05-07T06:49:40.098Z,95397.97
2023-05-07T06:52:06.847Z,95397.09
2023-05-07T06:54:33.911Z,95398.50
2023-05-07T06:57:00.743Z,95396.28
2023-05-07T06:59:28.574Z,95394.13
2023-05-07T07:01:55.562Z,95401.09
2023-05-07T07:04:22.570Z,95398.16
2023-05-07T07:06:55.314Z,95399.19
2023-05-07T07:09:23.907Z,95393.38
2023-05-07T07:11:52.311Z,95395.13
2023-05-07T07:14:19.794Z,95396.69
2023-05-07T07:16:49.892Z,95402.06
2023-05-07T07:19:18.844Z,95395.97
2023-05-07T07:21:47.693Z,95404.38
2023-05-07T07:24:16.145Z,95405.31
2023-05-07T07:26:42.725Z,95400.41
2023-05-07T07:29:09.582Z,95400.09
2023-05-07T07:31:36.560Z,95398.69
2023-05-07T07:34:03.238Z,95404.75
2023-05-07T07:36:38.926Z,95399.84
2023-05-07T07:39:11.918Z,95406.69
2023-05-07T07:41:38.618Z,95402.53
2023-05-07T07:44:05.377Z,95399.91
2023-05-07T07:46:32.514Z,95407.13
2023-05-07T07:48:59.318Z,95405.66
2023-05-07T07:51:25.947Z,95399.84
2023-05-07T07:53:52.635Z,95404.66
2023-05-07T07:56:19.265Z,95398.50
2023-05-07T07:58:46.053Z,95407.28
2023-05-07T08:01:12.902Z,95399.59
2023-05-07T08:03:40.625Z,95406.00
2023-05-07T08:06:07.492Z,95401.41
2023-05-07T08:08:35.759Z,95396.75
2023-05-07T08:11:02.899Z,95401.53
2023-05-07T08:13:32.629Z,95396.91
2023-05-07T08:16:00.168Z,95398.59
2023-05-07T08:18:27.005Z,95399.44
2023-05-07T08:20:54.512Z,95401.91
2023-05-07T08:23:24.050Z,95404.03
2023-05-07T08:25:51.203Z,95398.19
2023-05-07T08:28:18.857Z,95402.25
2023-05-07T08:30:45.460Z,95400.00
2023-05-07T08:33:12.662Z,95404.00
2023-05-07T08:35:40.024Z,95399.72
2023-05-07T08:38:07.982Z,95403.22
2023-05-07T08:40:41.112Z,95406.16
2023-05-07T08:43:15.877Z,95403.47
2023-05-07T08:45:46.192Z,95407.47
2023-05-07T08:48:17.988Z,95405.16
2023-05-07T08:50:51.670Z,95403.28
2023-05-07T08:53:19.087Z,95401.41
2023-05-07T08:55:47.032Z,95395.16
2023-05-07T08:58:14.544Z,95399.53
2023-05-07T09:00:44.170Z,95409.44
2023-05-07T09:03:11.848Z,95409.94
2023-05-07T09:05:38.760Z,95401.69
2023-05-07T09:08:09.021Z,95403.41
2023-05-07T09:10:37.250Z,95407.84
2023-05-07T09:13:05.512Z,95394.50
2023-05-07T09:15:32.337Z,95409.13
2023-05-07T09:18:02.818Z,95401.28
2023-05-07T09:20:33.618Z,95404.06
2023-05-07T09:23:01.445Z,95403.34
2023-05-07T09:25:30.215Z,95404.53
2023-05-07T09:27:57.849Z,95406.19
2023-05-07T09:30:29.269Z,95397.53
2023-05-07T09:32:56.070Z,95394.44
2023-05-07T09:35:23.173Z,95399.56
2023-05-07T09:37:57.832Z,95402.78
2023-05-07T09:40:29.962Z,95396.47
2023-05-07T09:43:13.926Z,95388.19
2023-05-07T09:45:48.302Z,95388.59
2023-05-07T09:48:18.069Z,95393.34
2023-05-07T09:50:50.603Z,95395.34
2023-05-07T09:53:22.299Z,95386.28
2023-05-07T09:55:49.730Z,95384.75
2023-05-07T09:58:17.736Z,95392.25
2023-05-07T10:00:46.600Z,95388.28
2023-05-07T10:03:16.352Z,95383.94
2023-05-07T10:05:54.811Z,95383.56
2023-05-07T10:08:22.767Z,95382.75
2023-05-07T10:10:52.635Z,95380.75
2023-05-07T10:13:24.112Z,95386.69
2023-05-07T10:15:54.945Z,95381.13
2023-05-07T10:18:23.258Z,95381.16
2023-05-07T10:20:55.254Z,95366.13
2023-05-07T10:23:25.549Z,95378.31
2023-05-07T10:26:00.670Z,95373.56
2023-05-07T10:28:31.918Z,95382.69
2023-05-07T10:31:20.282Z,95375.59
2023-05-07T10:33:50.004Z,95384.31
2023-05-07T10:36:19.545Z,95375.63
2023-05-07T10:38:47.227Z,95375.19
2023-05-07T10:41:14.460Z,95381.97
2023-05-07T10:43:44.983Z,95378.41
2023-05-07T10:46:21.112Z,95379.97
2023-05-07T10:49:08.871Z,95377.59
2023-05-07T10:51:41.452Z,95376.44
2023-05-07T10:54:23.337Z,95376.03
2023-05-07T10:56:57.311Z,95376.06
2023-05-07T10:59:37.734Z,95381.19
2023-05-07T11:02:13.929Z,95368.94
2023-05-07T11:05:23.605Z,95378.03
2023-05-07T11:07:59.462Z,95379.22
2023-05-07T11:10:50.268Z,95374.47
2023-05-07T11:13:45.743Z,95373.28
2023-05-07T11:16:23.092Z,95368.53
2023-05-07T11:18:56.929Z,95372.47
2023-05-07T11:21:41.135Z,95376.44
2023-05-07T11:24:20.724Z,95379.97
2023-05-07T11:26:52.577Z,95370.88
2023-05-07T11:29:23.663Z,95374.81
2023-05-07T11:31:56.561Z,95369.28
2023-05-07T11:34:29.069Z,95364.88
2023-05-07T11:36:59.624Z,95360.16
2023-05-07T11:39:39.059Z,95366.81
2023-05-07T11:42:05.953Z,95357.31
2023-05-07T11:44:45.932Z,95358.88
2023-05-07T11:47:17.999Z,95352.13
2023-05-07T11:49:44.867Z,95353.22
2023-05-07T11:52:11.862Z,95354.00
2023-05-07T11:54:38.913Z,95355.53
2023-05-07T11:57:05.568Z,95356.69
2023-05-07T11:59:39.913Z,95360.97
2023-05-07T12:02:07.943Z,95358.50
2023-05-07T12:04:42.037Z,95354.59
2023-05-07T12:07:18.153Z,95359.31
2023-05-07T12:09:48.661Z,95355.66
2023-05-07T12:12:15.832Z,95351.19
2023-05-07T12:14:43.736Z,95356.72
2023-05-07T12:17:10.868Z,95362.72
2023-05-07T12:19:39.469Z,95348.03
2023-05-07T12:22:08.277Z,95354.31
2023-05-07T12:24:49.230Z,95347.22
2023-05-07T12:27:17.571Z,95348.00
2023-05-07T12:29:46.456Z,95340.88
2023-05-07T12:32:20.770Z,95343.66
2023-05-07T12:34:50.424Z,95342.44
2023-05-07T12:37:24.587Z,95331.00
2023-05-07T12:40:13.097Z,95330.59
2023-05-07T12:42:41.668Z,95340.50
2023-05-07T12:45:17.512Z,95329.78
2023-05-07T12:47:50.463Z,95320.25
2023-05-07T12:50:17.630Z,95322.84
2023-05-07T12:52:48.040Z,95322.34
2023-05-07T12:55:16.568Z,95315.16
2023-05-07T12:57:45.099Z,95313.97
2023-05-07T13:00:12.361Z,95312.00
2023-05-07T13:02:40.683Z,95307.59
2023-05-07T13:05:07.753Z,95304.00
2023-05-07T13:07:34.515Z,95305.13
2023-05-07T13:10:01.114Z,95303.84
2023-05-07T13:12:27.792Z,95309.50
2023-05-07T13:14:54.515Z,95301.63
2023-05-07T13:17:21.117Z,95301.69
2023-05-07T13:19:47.758Z,95305.59
2023-05-07T13:22:14.555Z,95308.97
2023-05-07T13:24:41.195Z,95318.47
2023-05-07T13:27:08.004Z,95315.72
2023-05-07T13:29:34.607Z,95305.78
2023-05-07T13:32:01.208Z,95308.13
2023-05-07T13:34:27.840Z,95307.31
2023-05-07T13:36:54.420Z,95310.06
2023-05-07T13:39:21.239Z,95314.06
2023-05-07T13:41:47.928Z,95319.59
2023-05-07T13:44:14.534Z,95320.38
2023-05-07T13:46:41.353Z,95316.41
2023-05-07T13:49:07.911Z,95311.63
2023-05-07T13:51:34.507Z,95318.81
2023-05-07T13:54:01.275Z,95309.78
2023-05-07T13:56:27.901Z,95310.56
2023-05-07T13:58:59.974Z,95312.53
2023-05-07T14:01:27.498Z,95318.44
2023-05-07T14:03:54.399Z,95323.56
2023-05-07T14:06:21.171Z,95311.63
2023-05-07T14:08:48.849Z,95319.66
2023-05-07T14:11:15.437Z,95319.13
2023-05-07T14:13:42.049Z,95315.56
2023-05-07T14:16:08.678Z,95322.72
2023-05-07T14:18:35.360Z,95314.84
2023-05-07T14:21:02.119Z,95323.16
2023-05-07T14:23:28.892Z,95320.06
2023-05-07T14:25:55.691Z,95317.03
2023-05-07T14:28:22.385Z,95322.59
2023-05-07T14:30:49.264Z,95323.84
2023-05-07T14:33:15.889Z,95320.34
2023-05-07T14:35:42.731Z,95319.97
2023-05-07T14:38:09.310Z,95319.16
2023-05-07T14:40:36.022Z,95316.78
2023-05-07T14:43:02.606Z,95322.34
2023-05-07T14:45:29.241Z,95320.38
2023-05-07T14:47:55.978Z,95325.13
2023-05-07T14:50:22.927Z,95326.72
2023-05-07T14:52:49.866Z,95333.84
2023-05-07T14:55:16.746Z,95335.44
2023-05-07T14:57:43.326Z,95334.25
2023-05-07T15:00:10.353Z,95336.63
2023-05-07T15:02:37.067Z,95338.28
2023-05-07T15:05:07.258Z,95335.91
2023-05-07T15:07:33.908Z,95337.94
2023-05-07T15:10:00.792Z,95332.81
2023-05-07T15:12:27.552Z,95337.19
2023-05-07T15:14:54.118Z,95331.25
2023-05-07T15:17:20.739Z,95333.25
2023-05-07T15:19:47.313Z,95330.91
2023-05-07T15:22:14.037Z,95333.72
2023-05-07T15:24:41.465Z,95337.69
2023-05-07T15:27:08.042Z,95330.16
2023-05-07T15:29:34.606Z,95331.34
2023-05-07T15:32:02.748Z,95332.97
2023-05-07T15:34:29.341Z,95326.63
2023-05-07T15:36:58.788Z,95324.22
2023-05-07T15:39:25.433Z,95321.06
2023-05-07T15:41:52.029Z,95323.78
2023-05-07T15:44:18.770Z,95319.34
2023-05-07T15:46:45.428Z,95319.25
2023-05-07T15:49:12.130Z,95318.38
2023-05-07T15:51:38.751Z,95315.91
2023-05-07T15:54:05.542Z,95316.22
2023-05-07T15:56:32.109Z,95311.50
2023-05-07T15:58:58.690Z,95318.66
2023-05-07T16:01:26.155Z,95313.91
2023-05-07T16:03:53.069Z,95312.81
2023-05-07T16:06:19.845Z,95315.28
2023-05-07T16:08:46.459Z,95309.84
2023-05-07T16:11:13.150Z,95306.75
2023-05-07T16:13:39.810Z,95309.56
2023-05-07T16:16:06.606Z,95313.25
2023-05-07T16:18:33.228Z,95308.19
2023-05-07T16:20:59.899Z,95310.66
2023-05-07T16:23:26.682Z,95308.75
2023-05-07T16:25:53.354Z,95310.03
2023-05-07T16:28:19.966Z,95299.75
2023-05-07T16:30:46.617Z,95299.81
2023-05-07T16:33:13.304Z,95299.47
2023-05-07T16:35:40.444Z,95302.66
2023-05-07T16:38:07.062Z,95299.53
2023-05-07T16:40:33.755Z,95307.09
2023-05-07T16:43:00.350Z,95303.16
2023-05-07T16:45:26.987Z,95302.00
2023-05-07T16:47:53.661Z,95304.00
2023-05-07T16:50:20.364Z,95305.22
2023-05-07T16:52:47.115Z,95304.06
2023-05-07T16:55:14.014Z,95309.19
2023-05-07T16:57:40.839Z,95308.03
2023-05-07T17:00:07.997Z,95313.56
2023-05-07T17:02:34.686Z,95315.59
2023-05-07T17:05:01.450Z,95317.56
2023-05-07T17:07:28.101Z,95319.16
2023-05-07T17:09:54.742Z,95320.34
2023-05-07T17:12:21.437Z,95320.34
2023-05-07T17:14:48.135Z,95324.31
2023-05-07T17:17:14.898Z,95332.19
2023-05-07T17:19:41.798Z,95329.84
2023-05-07T17:22:08.651Z,95321.97
2023-05-07T17:24:35.424Z,95327.06
2023-05-07T17:27:02.215Z,95332.97
2023-05-07T17:29:30.146Z,95328.25
2023-05-07T17:31:56.861Z,95336.53
2023-05-07T17:34:23.663Z,95344.00
2023-05-07T17:36:50.451Z,95340.03
2023-05-07T17:39:17.284Z,95341.59
2023-05-07T17:41:43.949Z,95337.69
2023-05-07T17:44:10.664Z,95349.91
2023-05-07T17:46:37.258Z,95357.75
2023-05-07T17:49:03.918Z,95358.94
2023-05-07T17:51:38.994Z,95356.56
2023-05-07T17:54:09.491Z,95362.44
2023-05-07T17:56:38.169Z,95366.31
2023-05-07T17:59:04.780Z,95368.28
2023-05-07T18:01:31.550Z,95372.97
2023-05-07T18:03:58.404Z,95375.31
2023-05-07T18:06:25.116Z,95368.97
2023-05-07T18:08:51.781Z,95373.69
2023-05-07T18:11:18.337Z,95370.50
2023-05-07T18:13:44.908Z,95374.41
2023-05-07T18:16:11.621Z,95370.44
2023-05-07T18:18:38.409Z,95372.00
2023-05-07T18:21:05.120Z,95375.09
2023-05-07T18:23:31.662Z,95377.84
2023-05-07T18:25:58.378Z,95383.72
2023-05-07T18:28:25.014Z,95385.25
2023-05-07T18:30:51.547Z,95388.34
2023-05-07T18:33:18.442Z,95389.09
2023-05-07T18:35:45.070Z,95390.22
2023-05-07T18:38:11.649Z,95399.25
2023-05-07T18:40:38.245Z,95398.03
2023-05-07T18:43:05.000Z,95404.69
2023-05-07T18:45:31.547Z,95406.97
2023-05-07T18:47:58.173Z,95401.44
2023-05-07T18:50:25.042Z,95414.00
2023-05-07T18:52:51.643Z,95417.13
2023-05-07T18:55:18.413Z,95414.72
2023-05-07T18:57:45.251Z,95415.84
2023-05-07T19:00:12.612Z,95419.72
2023-05-07T19:02:39.354Z,95419.66
2023-05-07T19:05:07.073Z,95422.75
2023-05-07T19:07:33.768Z,95422.31
2023-05-07T19:10:19.216Z,95426.19
2023-05-07T19:12:45.890Z,95424.50
2023-05-07T19:15:12.624Z,95426.00
2023-05-07T19:17:39.275Z,95423.16
2023-05-07T19:22:34.123Z,95430.94
2023-05-07T19:25:03.608Z,95436.75
2023-05-07T19:27:30.367Z,95433.53
2023-05-07T19:29:56.914Z,95443.69
2023-05-07T19:32:23.545Z,95452.28
2023-05-07T19:34:50.252Z,95454.94
2023-05-07T19:37:16.864Z,95454.47
2023-05-07T19:39:44.064Z,95456.75
2023-05-07T19:42:10.648Z,95469.66
2023-05-07T19:44:37.228Z,95473.09
2023-05-07T19:47:03.864Z,95475.78
2023-05-07T19:49:30.437Z,95471.03
2023-05-07T19:51:57.054Z,95473.69
2023-05-07T19:54:23.880Z,95483.84
2023-05-07T19:56:50.511Z,95483.00
2023-05-07T19:59:17.083Z,95484.09
2023-05-07T20:01:43.763Z,95495.47
2023-05-07T20:04:10.492Z,95492.66
2023-05-07T20:06:37.106Z,95494.91
2023-05-07T20:09:04.059Z,95505.50
2023-05-07T20:11:30.906Z,95499.13
2023-05-07T20:13:58.534Z,95506.19
2023-05-07T20:16:25.125Z,95510.06
2023-05-07T20:18:51.837Z,95508.47
2023-05-07T20:21:18.444Z,95511.19
2023-05-07T20:23:45.085Z,95506.84
2023-05-07T20:26:11.657Z,95509.16
2023-05-07T20:28:38.361Z,95514.22
2023-05-07T20:31:05.054Z,95512.22
2023-05-07T20:33:31.698Z,95518.06
2023-05-07T20:35:58.617Z,95512.16
2023-05-07T20:38:25.270Z,95513.66
2023-05-07T20:40:51.878Z,95511.66
2023-05-07T20:43:18.505Z,95515.94
2023-05-07T20:45:45.167Z,95520.19
2023-05-07T20:48:11.879Z,95528.81
2023-05-07T20:50:38.510Z,95520.16
2023-05-07T20:53:05.060Z,95518.91
2023-05-07T20:55:31.808Z,95523.16
2023-05-07T20:57:58.515Z,95531.78
2023-05-07T21:00:25.189Z,95536.84
2023-05-07T21:02:51.893Z,95536.06
2023-05-07T21:05:18.741Z,95537.56
2023-05-07T21:07:45.534Z,95532.78
2023-05-07T21:10:12.413Z,95539.00
2023-05-07T21:12:39.227Z,95543.28
2023-05-07T21:15:06.392Z,95540.91
2023-05-07T21:17:33.043Z,95542.78
2023-05-07T21:19:59.609Z,95541.19
2023-05-07T21:22:26.422Z,95547.41
2023-05-07T21:24:52.977Z,95548.91
2023-05-07T21:27:19.581Z,95549.63
2023-05-07T21:29:46.212Z,95549.97
2023-05-07T21:32:12.739Z,95555.03
2023-05-07T21:34:39.398Z,95555.75
2023-05-07T21:37:05.940Z,95557.72
2023-05-07T21:39:32.592Z,95557.63
2023-05-07T21:41:59.531Z,95563.47
2023-05-07T21:44:29.232Z,95560.31
2023-05-07T21:46:55.825Z,95564.13
2023-05-07T21:49:22.407Z,95562.53
2023-05-07T21:51:48.997Z,95570.34
2023-05-07T21:54:15.546Z,95572.66
2023-05-07T21:56:42.204Z,95569.47
2023-05-07T21:59:08.777Z,95573.72
2023-05-07T22:01:35.368Z,95573.66
2023-05-07T22:04:02.211Z,95575.94
2023-05-07T22:06:28.977Z,95579.03
2023-05-07T22:08:55.621Z,95569.59
2023-05-07T22:11:22.326Z,95578.53
2023-05-07T22:13:48.993Z,95584.38
2023-05-07T22:16:15.705Z,95576.09
2023-05-07T22:18:42.335Z,95574.84
2023-05-07T22:21:08.908Z,95584.56
2023-05-07T22:23:35.525Z,95590.06
2023-05-07T22:26:02.259Z,95591.13
2023-05-07T22:28:28.881Z,95593.78
2023-05-07T22:30:55.644Z,95583.53
2023-05-07T22:33:22.215Z,95589.72
2023-05-07T22:35:48.849Z,95596.72
2023-05-07T22:38:15.395Z,95595.50
2023-05-07T22:40:42.014Z,95596.97
2023-05-07T22:43:08.810Z,95599.28
2023-05-07T22:45:35.431Z,95598.50
2023-05-07T22:48:02.122Z,95600.81
2023-05-07T22:50:28.756Z,95605.84
2023-05-07T22:52:55.413Z,95608.16
2023-05-07T22:55:22.047Z,95610.47
2023-05-07T22:57:48.929Z,95615.13
2023-05-07T23:00:15.779Z,95611.13
2023-05-07T23:02:42.885Z,95619.72
2023-05-07T23:05:09.632Z,95617.31
2023-05-07T23:07:36.216Z,95620.06
2023-05-07T23:10:03.275Z,95625.13
2023-05-07T23:12:30.069Z,95629.78
2023-05-07T23:14:56.854Z,95623.88
2023-05-07T23:17:23.494Z,95624.22
2023-05-07T23:19:50.194Z,95621.81
2023-05-07T23:22:17.105Z,95622.19
2023-05-07T23:24:43.706Z,95626.41
2023-05-07T23:27:10.361Z,95631.09
2023-05-07T23:29:36.954Z,95621.63
2023-05-07T23:32:03.673Z,95625.44
2023-05-07T23:34:30.394Z,95626.16
2023-05-07T23:36:56.953Z,95630.03
2023-05-07T23:39:23.620Z,95622.06
2023-05-07T23:41:50.291Z,95623.56
2023-05-07T23:44:16.876Z,95625.06
2023-05-07T23:46:44.584Z,95626.22
2023-05-07T23:49:11.269Z,95623.75
2023-05-07T23:51:37.956Z,95619.41
2023-05-07T23:54:04.663Z,95624.78
2023-05-07T23:56:31.212Z,95628.66
2023-05-07T23:58:58.084Z,95627.41
